Time;durP1;ratioP1;P1;durP2;ratioP2;P2;SDS_P1;SDS_P2;PMS_P1;PMS_P2;Temp;Humidity;BMP_temperature;BMP_pressure;BME280_temperature;BME280_humidity;BME280_pressure;Samples;Min_cycle;Max_cycle;Signal;HPM_P1;HPM_P2
2022/08/29 00:00:12;;;;;;;7.55;2.28;;;16.70;99.90;;;;;;6129667;23;20021;-92
2022/08/29 00:02:40;;;;;;;8.93;2.90;;;16.60;99.90;;;;;;6130029;23;20101;-92
2022/08/29 00:05:06;;;;;;;10.38;2.80;;;16.60;99.90;;;;;;6130397;23;20028;-93
2022/08/29 00:07:32;;;;;;;6.10;1.90;;;16.60;99.90;;;;;;6106386;23;20025;-92
2022/08/29 00:09:58;;;;;;;6.32;2.50;;;16.50;99.90;;;;;;6130088;23;20354;-93
2022/08/29 00:12:24;;;;;;;6.97;2.10;;;16.50;99.90;;;;;;6129946;23;20138;-92
2022/08/29 00:14:50;;;;;;;9.15;2.33;;;16.60;99.90;;;;;;6104610;23;20025;-92
2022/08/29 00:17:16;;;;;;;9.02;2.70;;;17.30;99.90;;;;;;6156334;23;20055;-92
2022/08/29 00:19:41;;;;;;;8.70;2.88;;;16.50;99.90;;;;;;6156638;23;20079;-92
2022/08/29 00:22:07;;;;;;;13.95;2.90;;;16.60;99.90;;;;;;6105294;23;20018;-92
2022/08/29 00:24:42;;;;;;;9.75;3.03;;;16.50;99.90;;;;;;6156202;23;20022;-93
2022/08/29 00:27:17;;;;;;;9.02;2.88;;;16.50;99.90;;;;;;6129084;23;20020;-92
2022/08/29 00:29:52;;;;;;;8.30;2.30;;;16.50;99.90;;;;;;6155914;23;20022;-93
2022/08/29 00:32:18;;;;;;;7.78;2.63;;;16.50;99.90;;;;;;6130769;23;20018;-93
2022/08/29 00:34:44;;;;;;;8.85;2.78;;;16.50;99.90;;;;;;6107203;23;20021;-92
2022/08/29 00:37:11;;;;;;;7.00;2.25;;;16.50;99.90;;;;;;6107176;23;20029;-92
2022/08/29 00:40:01;;;;;;;8.00;2.80;;;16.50;99.90;;;;;;6107012;23;20091;-93
2022/08/29 00:42:27;;;;;;;8.13;3.03;;;15.90;99.90;;;;;;6130652;23;20040;-92
2022/08/29 00:44:52;;;;;;;7.68;2.30;;;16.40;99.90;;;;;;6157602;23;20489;-93
2022/08/29 00:47:50;;;;;;;8.93;2.40;;;17.10;99.90;;;;;;6157207;23;20106;-92
2022/08/29 00:50:52;;;;;;;9.75;2.78;;;17.00;99.90;;;;;;6131095;23;20025;-92
2022/08/29 00:53:27;;;;;;;7.78;2.55;;;16.40;99.90;;;;;;6105987;23;20056;-92
2022/08/29 00:55:53;;;;;;;7.28;2.83;;;15.70;99.90;;;;;;6130963;23;20040;-93
2022/08/29 00:58:29;;;;;;;8.02;2.63;;;16.30;99.90;;;;;;6130585;23;20021;-93
2022/08/29 01:00:56;;;;;;;8.90;3.25;;;16.40;99.90;;;;;;6106831;23;20104;-93
2022/08/29 01:03:21;;;;;;;7.85;2.53;;;16.40;99.90;;;;;;6131728;23;20052;-92
2022/08/29 01:06:12;;;;;;;8.45;3.08;;;16.40;99.90;;;;;;6157619;23;20065;-92
2022/08/29 01:08:39;;;;;;;9.60;3.40;;;16.30;99.90;;;;;;6157320;23;20014;-92
2022/08/29 01:13:51;;;;;;;7.65;3.10;;;16.30;99.90;;;;;;6150565;22;20031;-92
2022/08/29 01:16:19;;;;;;;11.52;3.30;;;16.20;99.90;;;;;;6256164;22;20023;-93
2022/08/29 01:18:47;;;;;;;10.48;3.58;;;16.20;99.90;;;;;;6256243;22;20091;-93
2022/08/29 01:22:11;;;;;;;9.85;3.10;;;16.70;99.90;;;;;;6282213;22;20051;-91
2022/08/29 01:24:42;;;;;;;7.75;2.97;;;16.30;99.90;;;;;;6104378;23;20018;-92
2022/08/29 01:27:13;;;;;;;8.75;3.17;;;16.30;99.90;;;;;;6105048;23;20022;-92
2022/08/29 01:29:39;;;;;;;7.85;3.38;;;16.30;99.90;;;;;;6104415;23;20695;-92
2022/08/29 01:32:05;;;;;;;9.40;2.83;;;16.30;99.90;;;;;;6080659;23;20045;-93
2022/08/29 01:34:32;;;;;;;12.43;3.13;;;16.30;99.90;;;;;;6080905;23;20022;-92
2022/08/29 01:37:15;;;;;;;10.73;2.97;;;16.20;99.90;;;;;;6105359;23;20042;-92
2022/08/29 01:39:42;;;;;;;9.57;3.22;;;16.20;99.90;;;;;;6129305;23;20022;-92
2022/08/29 01:42:12;;;;;;;10.40;3.00;;;16.30;99.90;;;;;;6104773;23;20025;-92
2022/08/29 01:44:38;;;;;;;6.55;2.83;;;16.30;99.90;;;;;;6103906;23;20399;-93
2022/08/29 01:47:10;;;;;;;9.05;3.15;;;16.30;99.90;;;;;;6129290;23;20018;-92
2022/08/29 01:49:37;;;;;;;6.63;2.90;;;16.30;99.90;;;;;;6104366;23;20025;-93
2022/08/29 01:52:06;;;;;;;9.35;3.30;;;16.10;99.90;;;;;;6128581;23;20014;-93
2022/08/29 01:54:35;;;;;;;8.27;2.78;;;16.30;99.90;;;;;;6132843;22;20024;-93
2022/08/29 01:57:18;;;;;;;9.88;2.72;;;16.30;99.90;;;;;;6255684;22;20074;-93
2022/08/29 01:59:49;;;;;;;7.70;2.80;;;16.30;99.90;;;;;;6256115;22;20329;-92
2022/08/29 02:02:37;;;;;;;9.15;2.80;;;16.30;99.90;;;;;;6230104;22;20072;-93
2022/08/29 02:05:04;;;;;;;8.70;3.10;;;16.30;99.90;;;;;;6255713;22;20086;-93
2022/08/29 02:07:53;;;;;;;6.70;2.95;;;16.30;99.90;;;;;;6256711;22;20332;-93
2022/08/29 02:10:39;;;;;;;8.90;3.13;;;16.30;99.90;;;;;;6281062;22;20030;-94
2022/08/29 02:13:05;;;;;;;11.27;3.33;;;16.30;99.90;;;;;;6283108;22;20020;-93
2022/08/29 02:15:31;;;;;;;5.50;2.65;;;16.30;99.90;;;;;;6124203;23;20066;-93
2022/08/29 02:17:59;;;;;;;9.93;3.13;;;16.20;99.90;;;;;;6131513;23;20026;-93
2022/08/29 02:20:24;;;;;;;13.20;3.00;;;16.30;99.90;;;;;;6130961;23;20521;-93
2022/08/29 02:22:52;;;;;;;11.32;2.92;;;16.20;99.90;;;;;;6131694;23;20021;-94
2022/08/29 02:25:56;;;;;;;7.55;3.00;;;16.30;99.90;;;;;;6131002;23;20025;-93
2022/08/29 02:31:54;;;;;;;7.30;2.63;;;16.30;99.90;;;;;;6131987;23;20022;-90
2022/08/29 02:34:20;;;;;;;8.25;2.67;;;16.20;99.90;;;;;;6131915;23;20334;-91
2022/08/29 02:36:46;;;;;;;8.30;3.00;;;17.10;99.90;;;;;;6095322;23;20037;-92
2022/08/29 02:39:12;;;;;;;11.95;2.95;;;16.30;99.90;;;;;;6095687;23;20025;-93
2022/08/29 02:41:38;;;;;;;7.70;3.00;;;16.20;99.90;;;;;;6095721;23;20023;-92
2022/08/29 02:44:19;;;;;;;8.27;2.80;;;16.20;99.90;;;;;;6095408;23;20058;-92
2022/08/29 02:46:44;;;;;;;7.18;2.70;;;16.20;99.90;;;;;;6095853;23;20022;-92
2022/08/29 02:49:10;;;;;;;11.43;2.80;;;16.30;99.90;;;;;;6047649;23;20056;-92
2022/08/29 02:51:36;;;;;;;8.90;3.70;;;16.20;99.90;;;;;;6071425;23;20354;-92
2022/08/29 02:54:03;;;;;;;7.22;2.45;;;16.20;99.90;;;;;;6046055;23;20565;-91
2022/08/29 02:56:29;;;;;;;6.18;2.75;;;16.20;99.90;;;;;;6095528;23;20066;-93
2022/08/29 02:58:55;;;;;;;6.20;2.53;;;15.50;99.90;;;;;;6047426;23;20053;-92
2022/08/29 03:01:43;;;;;;;8.05;2.30;;;16.20;99.90;;;;;;6095797;23;20018;-93
2022/08/29 03:04:33;;;;;;;6.72;2.40;;;16.20;99.90;;;;;;6071974;23;20042;-91
2022/08/29 03:06:59;;;;;;;11.80;3.03;;;16.30;99.90;;;;;;6108093;23;20081;-91
2022/08/29 03:09:28;;;;;;;8.48;2.50;;;16.20;99.90;;;;;;6157346;22;20021;-92
2022/08/29 03:12:04;;;;;;;6.82;2.10;;;16.20;99.90;;;;;;6106956;23;20025;-93
2022/08/29 03:14:30;;;;;;;6.82;2.00;;;16.20;99.90;;;;;;6211722;22;20065;-92
2022/08/29 03:17:21;;;;;;;6.20;2.30;;;16.30;99.90;;;;;;6229933;22;20020;-93
2022/08/29 03:19:47;;;;;;;9.38;2.38;;;16.20;99.90;;;;;;6255809;22;20019;-92
2022/08/29 03:22:13;;;;;;;8.93;2.47;;;16.30;99.90;;;;;;6229147;22;20065;-92
2022/08/29 03:24:54;;;;;;;6.30;2.47;;;16.30;99.90;;;;;;6230420;22;20020;-92
2022/08/29 03:27:35;;;;;;;7.93;2.10;;;16.30;99.90;;;;;;6254250;22;20079;-92
2022/08/29 03:30:01;;;;;;;9.10;2.83;;;16.20;99.90;;;;;;6282080;22;20046;-93
2022/08/29 03:32:30;;;;;;;8.73;2.20;;;16.30;99.90;;;;;;6255135;22;20020;-91
2022/08/29 03:35:03;;;;;;;10.13;3.03;;;16.20;99.90;;;;;;6229794;22;20019;-92
2022/08/29 03:37:29;;;;;;;5.55;2.10;;;16.30;99.90;;;;;;6281973;22;20016;-92
2022/08/29 03:39:54;;;;;;;7.95;2.35;;;16.30;99.90;;;;;;6255128;22;20019;-92
2022/08/29 03:42:21;;;;;;;6.78;2.33;;;16.20;99.90;;;;;;6229832;22;20027;-91
2022/08/29 03:44:47;;;;;;;11.00;2.83;;;16.50;99.90;;;;;;6229701;22;20098;-91
2022/08/29 03:47:13;;;;;;;6.63;2.17;;;16.20;99.90;;;;;;6230183;22;20073;-92
2022/08/29 03:49:39;;;;;;;8.80;2.33;;;16.20;99.90;;;;;;6254819;22;20050;-91
2022/08/29 03:52:05;;;;;;;10.00;2.38;;;16.20;99.90;;;;;;6255529;22;20008;-92
2022/08/29 03:54:32;;;;;;;8.90;2.58;;;16.20;99.90;;;;;;6255012;22;20050;-92
2022/08/29 03:57:00;;;;;;;8.32;2.45;;;16.20;99.90;;;;;;6253857;22;20025;-92
2022/08/29 03:59:26;;;;;;;8.25;1.92;;;16.20;99.90;;;;;;6228640;22;20020;-91
2022/08/29 04:01:52;;;;;;;8.77;2.17;;;16.40;99.90;;;;;;6230014;22;20073;-91
2022/08/29 04:07:16;;;;;;;6.30;1.90;;;16.50;99.90;;;;;;6255302;22;20023;-92
2022/08/29 04:09:42;;;;;;;9.25;2.15;;;16.10;99.90;;;;;;6231483;22;20027;-92
2022/08/29 04:12:12;;;;;;;11.23;2.25;;;16.10;99.90;;;;;;6230836;22;20016;-91
2022/08/29 04:14:39;;;;;;;10.00;3.17;;;16.10;99.90;;;;;;6169926;23;20021;-92
2022/08/29 04:17:09;;;;;;;10.02;2.10;;;16.30;99.90;;;;;;6106986;23;20026;-91
2022/08/29 04:19:35;;;;;;;9.82;2.20;;;16.10;99.90;;;;;;6131771;23;20025;-91
2022/08/29 04:22:02;;;;;;;9.45;2.25;;;16.00;99.90;;;;;;6107030;23;20017;-91
2022/08/29 04:24:33;;;;;;;11.88;2.83;;;16.00;99.90;;;;;;6131840;23;20024;-92
2022/08/29 04:26:59;;;;;;;10.50;2.38;;;16.00;99.90;;;;;;6106830;23;20752;-92
2022/08/29 04:29:27;;;;;;;5.22;2.67;;;15.90;99.90;;;;;;6131028;23;20021;-91
2022/08/29 04:31:53;;;;;;;7.63;2.20;;;15.10;99.90;;;;;;6157982;23;20029;-92
2022/08/29 04:34:39;;;;;;;7.60;2.45;;;15.90;99.90;;;;;;6106727;23;20018;-91
2022/08/29 04:37:05;;;;;;;10.32;2.10;;;15.90;99.90;;;;;;6132115;23;20028;-92
2022/08/29 04:39:34;;;;;;;5.90;2.17;;;15.90;99.90;;;;;;6107816;23;20014;-91
2022/08/29 04:42:00;;;;;;;8.38;2.50;;;15.70;99.90;;;;;;6132191;23;20025;-92
2022/08/29 04:44:47;;;;;;;7.22;2.25;;;16.50;99.90;;;;;;6156355;23;20024;-91
2022/08/29 04:47:14;;;;;;;5.00;1.92;;;16.30;99.90;;;;;;6106026;23;20024;-91
2022/08/29 04:49:55;;;;;;;9.95;2.35;;;15.80;99.90;;;;;;6105937;23;20041;-91
2022/08/29 04:52:25;;;;;;;6.90;2.17;;;15.80;99.90;;;;;;6132007;23;20064;-92
2022/08/29 04:54:53;;;;;;;8.95;2.53;;;16.40;99.90;;;;;;6131861;23;20025;-92
2022/08/29 04:57:19;;;;;;;5.15;2.10;;;16.20;99.90;;;;;;6130885;23;20065;-92
2022/08/29 04:59:52;;;;;;;9.32;2.15;;;15.70;99.90;;;;;;6132146;23;20021;-91
2022/08/29 05:02:17;;;;;;;10.27;2.38;;;16.10;99.90;;;;;;6131739;23;20017;-93
2022/08/29 05:04:45;;;;;;;5.53;2.00;;;15.90;99.90;;;;;;6157295;23;20021;-91
2022/08/29 05:07:11;;;;;;;6.45;2.58;;;15.90;99.90;;;;;;6130388;23;20017;-91
2022/08/29 05:09:38;;;;;;;8.45;2.10;;;16.10;99.90;;;;;;6107353;23;20021;-91
2022/08/29 05:12:08;;;;;;;8.55;1.98;;;15.90;99.90;;;;;;6131581;23;20065;-92
2022/08/29 05:14:33;;;;;;;9.00;2.17;;;15.90;99.90;;;;;;6130380;23;20031;-91
2022/08/29 05:17:00;;;;;;;9.95;2.17;;;15.90;99.90;;;;;;6130959;23;20021;-93
2022/08/29 05:19:32;;;;;;;8.82;2.22;;;16.60;99.90;;;;;;6129430;23;20021;-91
2022/08/29 05:21:58;;;;;;;7.88;2.33;;;15.90;99.90;;;;;;6106483;23;20018;-91
2022/08/29 05:24:24;;;;;;;10.95;2.22;;;16.00;99.90;;;;;;6131222;23;20093;-91
2022/08/29 05:26:50;;;;;;;8.43;1.80;;;16.00;99.90;;;;;;6129489;23;20026;-89
2022/08/29 05:29:16;;;;;;;7.85;2.38;;;16.00;99.90;;;;;;6124768;23;20030;-90
2022/08/29 05:31:42;;;;;;;6.28;2.25;;;16.00;99.90;;;;;;6146260;22;20093;-90
2022/08/29 05:34:10;;;;;;;8.43;2.38;;;16.10;99.90;;;;;;6095290;23;20026;-89
2022/08/29 05:36:36;;;;;;;7.30;2.53;;;16.10;99.90;;;;;;6120292;23;20384;-88
2022/08/29 05:39:02;;;;;;;10.82;2.28;;;16.10;99.90;;;;;;6145586;23;20062;-89
2022/08/29 05:41:28;;;;;;;8.85;2.45;;;16.70;99.90;;;;;;6118478;23;20013;-89
2022/08/29 05:43:54;;;;;;;9.77;2.80;;;16.10;99.90;;;;;;6095203;23;20054;-89
2022/08/29 05:46:20;;;;;;;7.93;2.35;;;16.10;99.90;;;;;;6119029;23;20018;-88
2022/08/29 05:48:46;;;;;;;9.23;2.20;;;16.60;99.90;;;;;;6144526;23;20499;-89
2022/08/29 05:51:19;;;;;;;7.28;1.92;;;16.20;99.90;;;;;;6145093;23;20017;-88
2022/08/29 05:53:46;;;;;;;7.10;1.73;;;16.20;99.90;;;;;;6145877;23;20049;-90
2022/08/29 05:56:11;;;;;;;10.40;2.22;;;16.30;99.90;;;;;;6095254;23;20028;-89
2022/08/29 05:58:37;;;;;;;7.25;1.90;;;16.30;99.90;;;;;;6146554;22;20014;-91
2022/08/29 06:01:03;;;;;;;8.68;1.92;;;16.30;99.90;;;;;;6118955;23;20180;-91
2022/08/29 06:03:29;;;;;;;8.73;2.53;;;16.40;99.90;;;;;;6120423;23;20063;-92
2022/08/29 06:05:55;;;;;;;9.57;2.25;;;16.40;99.90;;;;;;6119870;23;20449;-92
2022/08/29 06:08:21;;;;;;;9.68;2.15;;;16.40;99.90;;;;;;6119128;23;20014;-92
2022/08/29 06:10:46;;;;;;;8.07;2.15;;;16.50;99.90;;;;;;6118770;23;20071;-88
2022/08/29 06:13:12;;;;;;;8.85;2.10;;;16.60;99.90;;;;;;6118655;23;20025;-88
2022/08/29 06:15:43;;;;;;;8.07;2.05;;;16.60;99.90;;;;;;6258791;22;20041;-88
2022/08/29 06:18:08;;;;;;;8.05;1.92;;;16.60;99.90;;;;;;6271378;22;20463;-87
2022/08/29 06:20:37;;;;;;;9.80;2.30;;;16.70;99.90;;;;;;6218846;22;20054;-90
2022/08/29 06:23:02;;;;;;;8.65;2.10;;;16.70;99.90;;;;;;6271146;22;20015;-89
2022/08/29 06:25:28;;;;;;;7.63;2.53;;;16.80;99.90;;;;;;6245037;22;20321;-88
2022/08/29 06:27:54;;;;;;;9.20;2.17;;;16.80;99.90;;;;;;6272834;22;20147;-88
2022/08/29 06:30:19;;;;;;;7.45;2.50;;;16.80;99.90;;;;;;6271907;22;20023;-89
2022/08/29 06:32:45;;;;;;;8.20;2.30;;;16.90;99.90;;;;;;6272059;22;20015;-89
2022/08/29 06:35:10;;;;;;;6.60;2.30;;;16.90;99.90;;;;;;6272643;22;20042;-89
2022/08/29 06:37:36;;;;;;;9.98;2.70;;;17.00;99.90;;;;;;6244609;22;20502;-89
2022/08/29 06:40:03;;;;;;;6.65;1.90;;;17.10;99.90;;;;;;6244539;22;20020;-89
2022/08/29 06:42:29;;;;;;;7.88;1.98;;;17.20;99.90;;;;;;6245553;22;20043;-87
2022/08/29 06:44:54;;;;;;;8.77;2.35;;;17.30;99.90;;;;;;6268815;22;20038;-88
2022/08/29 06:47:20;;;;;;;8.55;2.42;;;17.30;99.90;;;;;;6245029;22;20015;-87
2022/08/29 06:49:45;;;;;;;8.90;2.15;;;17.40;99.90;;;;;;6271533;22;20061;-88
2022/08/29 06:52:12;;;;;;;12.63;2.42;;;17.70;99.90;;;;;;6246340;22;20065;-92
2022/08/29 06:54:38;;;;;;;13.85;2.42;;;17.60;99.90;;;;;;6220614;22;20019;-92
2022/08/29 06:57:04;;;;;;;9.90;2.22;;;17.80;99.90;;;;;;6243826;22;20098;-93
2022/08/29 06:59:30;;;;;;;10.60;2.28;;;17.60;99.90;;;;;;6243077;22;20027;-95
2022/08/29 07:01:55;;;;;;;8.68;2.38;;;17.60;99.90;;;;;;6247552;22;20016;-96
2022/08/29 07:04:21;;;;;;;7.55;2.78;;;17.60;99.90;;;;;;6274607;22;20023;-94
2022/08/29 07:06:47;;;;;;;6.15;2.10;;;17.60;99.90;;;;;;6243558;22;20015;-93
2022/08/29 07:09:13;;;;;;;10.23;2.28;;;17.70;99.90;;;;;;6270933;22;20038;-93
2022/08/29 07:11:40;;;;;;;6.53;2.25;;;17.60;99.90;;;;;;6245588;22;20011;-93
2022/08/29 07:14:06;;;;;;;8.55;2.30;;;17.70;99.90;;;;;;6270899;22;20019;-91
2022/08/29 07:16:34;;;;;;;9.10;2.45;;;17.70;99.90;;;;;;6270225;22;20016;-89
2022/08/29 07:19:03;;;;;;;7.32;2.47;;;17.70;99.90;;;;;;6243316;22;20024;-89
2022/08/29 07:21:29;;;;;;;10.48;2.92;;;17.70;99.90;;;;;;6243773;22;20011;-88
2022/08/29 07:23:56;;;;;;;13.43;2.78;;;17.70;99.90;;;;;;6244134;22;20022;-89
2022/08/29 07:26:29;;;;;;;6.32;2.20;;;17.70;99.90;;;;;;6217508;22;20019;-88
2022/08/29 07:28:59;;;;;;;11.48;2.50;;;17.70;99.90;;;;;;6269825;22;20019;-87
2022/08/29 07:31:25;;;;;;;9.77;2.97;;;17.80;99.90;;;;;;6270614;22;20511;-87
2022/08/29 07:33:51;;;;;;;9.15;2.08;;;17.80;99.90;;;;;;6219067;22;20047;-86
2022/08/29 07:36:16;;;;;;;11.40;2.83;;;17.90;99.90;;;;;;6269449;22;20030;-86
2022/08/29 07:38:42;;;;;;;8.65;2.55;;;18.00;99.90;;;;;;6243124;22;20022;-86
2022/08/29 07:41:13;;;;;;;7.38;2.53;;;18.00;99.90;;;;;;6242616;22;20023;-87
2022/08/29 07:43:39;;;;;;;8.95;2.55;;;18.00;99.90;;;;;;6239476;22;20024;-87
2022/08/29 07:46:11;;;;;;;10.60;2.58;;;18.00;99.90;;;;;;6244009;22;20026;-87
2022/08/29 07:48:37;;;;;;;10.38;2.55;;;18.10;99.90;;;;;;6243642;22;20073;-89
2022/08/29 07:51:09;;;;;;;10.30;2.50;;;18.20;99.90;;;;;;6243293;22;20446;-87
2022/08/29 07:53:35;;;;;;;12.85;2.83;;;18.30;99.90;;;;;;6270979;22;20142;-88
2022/08/29 07:56:14;;;;;;;10.43;2.70;;;18.40;99.90;;;;;;6241769;22;20098;-86
2022/08/29 07:58:40;;;;;;;13.50;3.67;;;18.80;99.90;;;;;;6242616;22;20027;-86
2022/08/29 08:01:06;;;;;;;12.43;2.92;;;18.80;99.90;;;;;;6243733;22;20477;-86
2022/08/29 08:03:33;;;;;;;12.02;2.90;;;18.90;99.90;;;;;;6242535;22;20023;-87
2022/08/29 08:05:59;;;;;;;11.00;2.70;;;19.00;99.90;;;;;;6269658;22;20023;-87
2022/08/29 08:08:25;;;;;;;13.18;2.55;;;19.20;99.90;;;;;;6271249;22;20015;-87
2022/08/29 08:10:51;;;;;;;11.05;3.08;;;19.40;99.90;;;;;;6243390;22;20019;-87
2022/08/29 08:13:17;;;;;;;9.45;2.53;;;19.40;99.90;;;;;;6241345;22;20340;-87
2022/08/29 08:15:42;;;;;;;14.02;3.10;;;19.60;99.90;;;;;;6126923;23;20028;-87
2022/08/29 08:18:08;;;;;;;11.40;2.95;;;19.70;99.90;;;;;;6119359;23;20022;-87
2022/08/29 08:20:34;;;;;;;9.27;2.75;;;20.00;99.90;;;;;;6094893;23;20092;-87
2022/08/29 08:22:59;;;;;;;11.02;2.28;;;19.90;99.90;;;;;;6145645;22;20832;-86
2022/08/29 08:25:25;;;;;;;11.40;2.95;;;20.10;99.90;;;;;;6120005;23;20025;-86
2022/08/29 08:27:51;;;;;;;9.07;2.42;;;20.00;99.90;;;;;;6117209;23;20014;-87
2022/08/29 08:30:18;;;;;;;12.07;2.80;;;20.20;99.90;;;;;;6095084;23;20021;-88
2022/08/29 08:32:44;;;;;;;7.70;2.55;;;20.40;99.90;;;;;;6118478;23;20021;-87
2022/08/29 08:35:11;;;;;;;12.27;3.35;;;20.50;99.90;;;;;;6143979;23;20465;-86
2022/08/29 08:37:37;;;;;;;11.18;2.63;;;20.60;99.90;;;;;;6118276;23;20014;-86
2022/08/29 08:40:04;;;;;;;12.57;2.88;;;20.70;99.90;;;;;;6118118;23;20076;-86
2022/08/29 08:42:44;;;;;;;14.65;3.05;;;20.70;99.90;;;;;;6118132;23;20157;-87
2022/08/29 08:45:14;;;;;;;12.20;2.90;;;20.50;99.90;;;;;;6145755;23;20337;-88
2022/08/29 08:47:46;;;;;;;10.75;3.17;;;20.50;99.90;;;;;;6094106;23;20083;-89
2022/08/29 08:50:27;;;;;;;12.27;3.83;;;20.50;99.90;;;;;;6117730;23;20013;-87
2022/08/29 08:53:01;;;;;;;18.67;4.22;;;20.40;99.90;;;;;;6117988;23;20022;-88
2022/08/29 08:55:41;;;;;;;10.13;3.53;;;20.40;99.90;;;;;;6144338;23;20655;-89
2022/08/29 08:58:31;;;;;;;12.73;3.28;;;20.40;99.90;;;;;;6095414;23;20018;-88
2022/08/29 09:01:03;;;;;;;13.07;3.47;;;20.30;99.90;;;;;;6096706;23;20014;-89
2022/08/29 09:03:55;;;;;;;13.90;3.25;;;20.40;99.90;;;;;;6120265;23;20018;-90
2022/08/29 09:06:38;;;;;;;11.15;3.08;;;20.40;99.90;;;;;;6095848;23;20017;-88
2022/08/29 09:09:20;;;;;;;12.75;3.25;;;20.50;99.90;;;;;;6096005;23;20021;-88
2022/08/29 09:12:12;;;;;;;9.63;3.13;;;20.60;99.90;;;;;;6096101;23;20468;-88
2022/08/29 09:14:47;;;;;;;11.38;3.38;;;20.60;99.90;;;;;;6120248;23;20044;-88
2022/08/29 09:17:16;;;;;;;;;;;20.60;99.90;;;;;;6120282;23;20017;-88
2022/08/29 09:19:43;;;;;;;11.65;4.05;;;20.80;99.90;;;;;;6146073;23;19912;-88
2022/08/29 09:22:20;;;;;;;11.20;3.58;;;20.60;99.90;;;;;;6120101;23;20066;-89
2022/08/29 09:24:53;;;;;;;9.80;3.50;;;20.70;99.90;;;;;;6146042;23;20609;-88
2022/08/29 09:27:25;;;;;;;12.23;3.30;;;20.80;99.90;;;;;;6146194;23;20017;-88
2022/08/29 09:30:12;;;;;;;9.82;3.13;;;20.80;99.90;;;;;;6119697;23;20017;-88
2022/08/29 09:32:53;;;;;;;11.63;3.25;;;20.80;99.90;;;;;;6120065;23;20079;-87
2022/08/29 09:35:27;;;;;;;10.88;2.80;;;20.80;99.90;;;;;;6096144;23;20152;-87
2022/08/29 09:38:07;;;;;;;10.43;3.85;;;20.80;99.90;;;;;;6096161;23;20144;-88
2022/08/29 09:40:50;;;;;;;16.17;3.90;;;20.90;99.90;;;;;;6095270;23;20024;-88
2022/08/29 09:43:26;;;;;;;12.15;3.38;;;20.90;99.90;;;;;;6120587;23;20024;-88
2022/08/29 09:46:06;;;;;;;11.20;3.58;;;20.90;99.90;;;;;;6094879;23;20040;-88
2022/08/29 09:48:33;;;;;;;11.70;3.10;;;21.00;99.90;;;;;;6150016;22;20024;-88
2022/08/29 09:51:13;;;;;;;10.38;2.97;;;21.00;99.90;;;;;;6124048;23;20020;-89
2022/08/29 09:53:40;;;;;;;8.88;2.83;;;21.10;99.90;;;;;;6098201;23;20433;-89
2022/08/29 09:56:08;;;;;;;8.88;3.42;;;21.10;99.90;;;;;;6148857;23;20025;-88
2022/08/29 09:58:41;;;;;;;12.13;3.40;;;21.10;99.90;;;;;;6098144;23;20101;-88
2022/08/29 10:01:19;;;;;;;9.63;3.17;;;21.10;99.90;;;;;;6150136;23;20472;-87
2022/08/29 10:03:58;;;;;;;9.93;3.42;;;21.50;99.90;;;;;;6124054;23;20032;-87
2022/08/29 10:06:39;;;;;;;13.55;3.58;;;21.20;99.90;;;;;;6122232;23;20010;-88
2022/08/29 10:09:08;;;;;;;16.02;3.60;;;21.20;99.90;;;;;;6149171;23;20509;-87
2022/08/29 10:12:00;;;;;;;11.77;3.33;;;21.20;99.90;;;;;;6124144;23;20021;-88
2022/08/29 10:14:35;;;;;;;12.43;4.00;;;21.20;99.90;;;;;;6123572;23;20057;-88
2022/08/29 10:20:13;;;;;;;13.43;3.97;;;21.20;99.90;;;;;;6122153;23;20017;-87
2022/08/29 10:23:01;;;;;;;15.75;3.80;;;21.60;99.90;;;;;;6096246;23;20246;-88
2022/08/29 10:25:38;;;;;;;12.95;4.10;;;21.30;99.90;;;;;;6121495;23;20018;-89
2022/08/29 10:28:27;;;;;;;11.43;3.47;;;21.30;99.90;;;;;;6148211;23;20025;-88
2022/08/29 10:30:59;;;;;;;11.80;3.10;;;21.40;99.90;;;;;;6098135;23;20026;-87
2022/08/29 10:33:34;;;;;;;16.23;3.30;;;21.40;99.90;;;;;;6122161;23;20070;-87
2022/08/29 10:36:08;;;;;;;14.07;3.10;;;21.40;99.90;;;;;;6097884;23;20036;-87
2022/08/29 10:41:10;;;;;;;12.88;3.03;;;21.40;99.90;;;;;;6173842;23;19920;-91
2022/08/29 10:43:52;;;;;;;9.93;3.47;;;21.50;99.90;;;;;;6127138;23;20051;-91
2022/08/29 10:46:42;;;;;;;7.88;3.10;;;21.50;99.90;;;;;;6177368;23;20068;-92
2022/08/29 10:49:32;;;;;;;10.98;3.42;;;21.40;99.90;;;;;;6126855;23;20078;-93
2022/08/29 10:52:10;;;;;;;12.07;3.33;;;21.60;99.90;;;;;;6125598;23;20035;-93
2022/08/29 10:55:26;;;;;;;9.07;3.20;;;21.60;99.90;;;;;;6125965;23;20027;-92
2022/08/29 10:58:08;;;;;;;11.07;3.47;;;21.60;99.90;;;;;;6125700;23;20373;-91
2022/08/29 11:01:01;;;;;;;11.70;3.88;;;21.60;99.90;;;;;;6151168;23;20021;-91
2022/08/29 11:03:41;;;;;;;11.10;3.83;;;21.70;99.90;;;;;;6148913;23;20021;-92
2022/08/29 11:06:35;;;;;;;11.90;3.40;;;21.70;99.90;;;;;;6124849;23;20024;-91
2022/08/29 11:09:44;;;;;;;13.45;3.45;;;21.80;99.90;;;;;;6151515;23;20457;-92
2022/08/29 11:12:17;;;;;;;10.70;3.67;;;21.80;99.90;;;;;;6148462;23;20094;-92
2022/08/29 11:14:57;;;;;;;10.75;2.90;;;22.50;99.90;;;;;;6123887;23;20021;-91
2022/08/29 11:17:28;;;;;;;17.02;3.55;;;21.90;99.90;;;;;;6123228;23;20092;-91
2022/08/29 11:20:08;;;;;;;11.02;2.97;;;21.90;99.90;;;;;;6124411;23;20025;-93
2022/08/29 11:23:18;;;;;;;7.07;2.60;;;22.00;99.90;;;;;;6127155;23;20099;-95
2022/08/29 11:26:27;;;;;;;10.50;3.05;;;22.00;99.90;;;;;;6173823;23;20468;-94
2022/08/29 11:29:25;;;;;;;8.75;2.53;;;22.10;99.90;;;;;;6157834;23;20484;-90
2022/08/29 11:32:08;;;;;;;9.80;3.03;;;22.00;99.90;;;;;;6156902;23;20035;-90
2022/08/29 11:34:45;;;;;;;9.23;2.72;;;22.30;99.90;;;;;;6155147;23;20028;-90
2022/08/29 11:37:37;;;;;;;8.75;2.95;;;22.40;99.90;;;;;;6183241;23;20028;-90
2022/08/29 11:40:28;;;;;;;11.07;2.83;;;22.40;99.90;;;;;;6181146;23;20025;-90
2022/08/29 11:43:00;;;;;;;11.50;2.90;;;22.40;99.90;;;;;;6158424;23;20024;-93
2022/08/29 11:45:31;;;;;;;11.05;3.15;;;22.60;99.90;;;;;;6208029;23;20017;-93
2022/08/29 11:48:51;;;;;;;9.55;2.97;;;22.50;99.90;;;;;;6157356;23;20020;-93
2022/08/29 11:51:39;;;;;;;9.15;2.70;;;22.60;99.90;;;;;;6146370;23;20032;-90
2022/08/29 11:54:23;;;;;;;9.85;2.90;;;21.90;99.90;;;;;;6122282;23;20023;-91
2022/08/29 11:57:19;;;;;;;13.23;2.97;;;22.60;99.90;;;;;;6146358;23;20076;-91
2022/08/29 11:59:50;;;;;;;10.50;2.90;;;22.60;99.90;;;;;;6082090;23;20022;-90
2022/08/29 12:02:30;;;;;;;9.45;2.30;;;22.60;99.90;;;;;;6146334;23;20450;-90
2022/08/29 12:04:58;;;;;;;8.43;2.53;;;22.70;99.90;;;;;;6141819;23;20021;-91
2022/08/29 12:07:40;;;;;;;9.60;2.90;;;22.80;99.90;;;;;;6174881;23;20013;-90
2022/08/29 12:10:12;;;;;;;6.95;2.33;;;22.90;99.90;;;;;;6174113;23;20100;-90
2022/08/29 12:12:57;;;;;;;9.23;2.38;;;23.00;99.90;;;;;;6150576;23;20013;-90
2022/08/29 12:15:37;;;;;;;;;;;23.10;99.90;;;;;;6151165;23;20021;-91
2022/08/29 12:18:13;;;;;;;9.35;2.58;;;23.10;99.90;;;;;;6151124;23;19916;-90
2022/08/29 12:20:54;;;;;;;11.13;2.72;;;23.00;99.90;;;;;;6151268;23;20021;-90
2022/08/29 12:23:34;;;;;;;6.68;2.53;;;22.70;99.90;;;;;;6149848;23;20021;-91
2022/08/29 12:26:04;;;;;;;6.57;2.20;;;23.00;99.90;;;;;;6150090;23;20550;-90
2022/08/29 12:28:44;;;;;;;9.85;2.47;;;23.10;99.90;;;;;;6151661;23;20099;-93
2022/08/29 12:31:54;;;;;;;8.43;2.25;;;23.10;99.90;;;;;;6156025;22;20021;-95
2022/08/29 12:35:09;;;;;;;6.05;2.13;;;23.10;99.90;;;;;;6129202;23;20020;-95
2022/08/29 12:38:11;;;;;;;8.15;2.20;;;23.20;99.90;;;;;;6161167;23;20032;-95
2022/08/29 12:41:31;;;;;;;13.35;3.03;;;23.20;99.90;;;;;;6160015;23;20445;-96
2022/08/29 12:44:01;;;;;;;6.90;2.08;;;23.20;99.90;;;;;;6161511;23;20112;-96
2022/08/29 12:46:39;;;;;;;8.75;2.55;;;23.20;99.90;;;;;;6162338;23;20024;-94
2022/08/29 12:49:28;;;;;;;5.70;1.85;;;23.20;99.90;;;;;;6164647;23;20047;-96
2022/08/29 12:52:00;;;;;;;8.60;2.00;;;23.20;99.90;;;;;;6196847;23;20016;-96
2022/08/29 12:54:37;;;;;;;12.65;2.40;;;23.10;99.90;;;;;;6169101;23;20023;-96
2022/08/29 12:57:30;;;;;;;7.18;1.90;;;23.30;99.90;;;;;;6166252;23;20020;-94
2022/08/29 13:00:24;;;;;;;7.20;2.42;;;23.10;99.90;;;;;;6191272;23;20016;-95
2022/08/29 13:03:00;;;;;;;8.23;2.10;;;23.10;99.90;;;;;;6167844;23;20125;-96
2022/08/29 13:05:38;;;;;;;9.63;2.00;;;23.10;99.90;;;;;;6170864;23;20024;-95
2022/08/29 13:08:36;;;;;;;7.85;1.85;;;23.20;99.90;;;;;;6193677;23;20017;-96
2022/08/29 13:12:11;;;;;;;7.53;1.98;;;23.40;99.90;;;;;;6182402;23;20068;-96
2022/08/29 13:14:59;;;;;;;6.95;1.95;;;23.50;99.90;;;;;;6138967;23;20016;-95
2022/08/29 13:17:46;;;;;;;5.80;1.60;;;23.50;99.90;;;;;;6167428;23;20079;-95
2022/08/29 13:21:02;;;;;;;7.40;1.88;;;23.50;99.90;;;;;;6166847;23;20025;-94
2022/08/29 13:23:32;;;;;;;7.22;2.13;;;23.40;99.90;;;;;;6135151;23;20021;-95
2022/08/29 13:26:38;;;;;;;10.48;1.98;;;23.40;99.90;;;;;;6158825;23;20075;-94
2022/08/29 13:29:36;;;;;;;9.10;2.25;;;23.40;99.90;;;;;;6095606;23;20526;-94
2022/08/29 13:32:22;;;;;;;7.63;1.90;;;23.40;99.90;;;;;;6094496;23;20486;-95